Time;durP1;ratioP1;P1;durP2;ratioP2;P2;SDS_P1;SDS_P2;PMS_P1;PMS_P2;Temp;Humidity;BMP_temperature;BMP_pressure;BME280_temperature;BME280_humidity;BME280_pressure;Samples;Min_cycle;Max_cycle;Signal;HPM_P1;HPM_P2
2023/06/23 00:00:00;;;;;;;5.70;4.30;;;16.80;99.90;;;;;;5009798;28;20495;-52
2023/06/23 00:02:27;;;;;;;10.70;4.40;;;16.80;99.90;;;;;;5010244;28;20500;-52
2023/06/23 00:04:54;;;;;;;8.00;4.10;;;16.80;99.90;;;;;;5009648;28;20467;-52
2023/06/23 00:07:20;;;;;;;4.83;4.17;;;16.80;99.90;;;;;;5011767;28;20448;-51
2023/06/23 00:09:47;;;;;;;3.70;3.40;;;16.80;99.90;;;;;;5010067;28;20510;-52
2023/06/23 00:12:14;;;;;;;5.60;4.37;;;16.80;99.90;;;;;;5011816;28;20448;-51
2023/06/23 00:14:42;;;;;;;5.77;4.50;;;16.80;99.90;;;;;;5003311;28;20492;-51
2023/06/23 00:17:09;;;;;;;5.63;4.10;;;16.70;99.90;;;;;;5011538;28;20501;-53
2023/06/23 00:19:36;;;;;;;4.93;4.20;;;16.70;99.90;;;;;;5011047;28;20462;-52
2023/06/23 00:22:03;;;;;;;8.83;3.83;;;16.70;99.90;;;;;;5010014;28;20492;-53
2023/06/23 00:24:30;;;;;;;6.47;3.90;;;16.70;99.90;;;;;;5011406;28;20455;-51
2023/06/23 00:26:57;;;;;;;5.03;3.83;;;16.70;99.90;;;;;;5008491;28;20471;-53
2023/06/23 00:29:24;;;;;;;8.33;3.87;;;16.70;99.90;;;;;;5008857;28;20456;-52
2023/06/23 00:31:51;;;;;;;8.30;4.63;;;16.60;99.90;;;;;;5013750;28;20492;-53
2023/06/23 00:34:18;;;;;;;7.33;4.20;;;16.60;99.90;;;;;;5014509;28;20615;-52
2023/06/23 00:36:44;;;;;;;4.30;4.00;;;16.60;99.90;;;;;;5013362;28;21032;-51
2023/06/23 00:39:12;;;;;;;6.30;4.33;;;16.60;99.90;;;;;;5014194;28;20488;-52
2023/06/23 00:41:39;;;;;;;6.83;4.73;;;16.60;99.90;;;;;;5013721;28;20460;-51
2023/06/23 00:44:08;;;;;;;5.97;3.83;;;16.60;99.90;;;;;;5004925;28;20494;-51
2023/06/23 00:46:35;;;;;;;8.10;4.20;;;16.70;99.90;;;;;;5014215;28;20884;-51
2023/06/23 00:49:04;;;;;;;4.40;3.90;;;16.60;99.90;;;;;;5013192;28;20495;-52
2023/06/23 00:51:31;;;;;;;4.50;3.70;;;16.60;99.90;;;;;;5011099;28;20474;-51
2023/06/23 00:53:58;;;;;;;6.90;3.83;;;16.60;99.90;;;;;;5009188;28;20910;-51
2023/06/23 00:56:25;;;;;;;5.63;3.80;;;16.60;99.90;;;;;;5011052;28;20858;-50
2023/06/23 00:58:53;;;;;;;5.70;3.40;;;16.60;99.90;;;;;;5010265;28;20463;-52
2023/06/23 01:01:20;;;;;;;13.73;4.20;;;16.60;99.90;;;;;;5012116;28;20985;-51
2023/06/23 01:03:46;;;;;;;9.30;4.40;;;16.60;99.90;;;;;;5011684;28;20491;-52
2023/06/23 01:06:21;;;;;;;6.03;4.70;;;16.60;99.90;;;;;;5012144;28;20495;-52
2023/06/23 01:08:56;;;;;;;8.37;4.53;;;16.50;99.90;;;;;;5010530;28;20497;-51
2023/06/23 01:11:29;;;;;;;8.17;4.20;;;16.50;99.90;;;;;;5012642;28;20996;-51
2023/06/23 01:13:59;;;;;;;8.83;5.07;;;16.40;99.90;;;;;;5008200;28;20630;-54
2023/06/23 01:16:31;;;;;;;5.70;4.70;;;16.50;99.90;;;;;;5010227;28;21082;-52
2023/06/23 01:19:05;;;;;;;7.60;5.03;;;16.50;99.90;;;;;;5010102;28;20499;-52
2023/06/23 01:21:40;;;;;;;4.77;4.43;;;16.50;99.90;;;;;;5010489;28;20491;-52
2023/06/23 01:24:17;;;;;;;10.13;6.07;;;16.50;99.90;;;;;;5008612;28;20486;-51
2023/06/23 01:27:06;;;;;;;15.13;5.10;;;16.50;99.90;;;;;;5010272;28;20551;-51
2023/06/23 01:29:38;;;;;;;5.63;5.13;;;16.50;99.90;;;;;;5007837;28;20551;-53
2023/06/23 01:32:11;;;;;;;7.43;4.90;;;16.60;99.90;;;;;;5008492;28;20460;-50
2023/06/23 01:34:41;;;;;;;10.90;5.03;;;16.60;99.90;;;;;;5009246;28;20496;-52
2023/06/23 01:37:11;;;;;;;5.43;4.77;;;16.60;99.90;;;;;;5011637;28;21009;-52
2023/06/23 01:39:42;;;;;;;7.80;4.80;;;16.60;99.90;;;;;;5012216;28;20543;-52
2023/06/23 01:42:12;;;;;;;6.43;4.67;;;16.60;99.90;;;;;;5011050;28;20559;-52
2023/06/23 01:44:43;;;;;;;6.17;5.00;;;16.60;99.90;;;;;;5012416;28;20499;-51
2023/06/23 01:47:15;;;;;;;10.80;5.00;;;16.60;99.90;;;;;;5010914;28;20567;-52
2023/06/23 01:49:44;;;;;;;8.97;5.30;;;16.60;99.90;;;;;;5010783;28;20519;-53
2023/06/23 01:52:13;;;;;;;16.73;5.10;;;16.60;99.90;;;;;;5010567;28;20559;-51
2023/06/23 01:54:41;;;;;;;6.63;4.67;;;16.50;99.90;;;;;;5012435;28;20597;-51
2023/06/23 01:57:11;;;;;;;7.63;4.47;;;16.60;99.90;;;;;;5012710;28;20927;-52
2023/06/23 01:59:41;;;;;;;9.83;5.47;;;16.50;99.90;;;;;;5013365;28;20475;-53
2023/06/23 02:02:09;;;;;;;8.53;5.67;;;16.50;99.90;;;;;;5011121;28;20931;-51
2023/06/23 02:04:38;;;;;;;12.80;6.00;;;16.50;99.90;;;;;;5024233;23;20586;-51
2023/06/23 02:07:06;;;;;;;7.00;5.20;;;16.50;99.90;;;;;;5013178;28;20519;-51
2023/06/23 02:09:33;;;;;;;5.70;5.13;;;16.50;99.90;;;;;;5010462;28;21035;-51
2023/06/23 02:12:03;;;;;;;6.60;5.43;;;16.40;99.90;;;;;;5009723;28;20471;-50
2023/06/23 02:14:30;;;;;;;8.57;4.63;;;16.40;99.90;;;;;;5003995;28;20488;-50
2023/06/23 02:16:58;;;;;;;7.63;5.87;;;16.40;99.90;;;;;;4992581;28;20489;-51
2023/06/23 02:19:27;;;;;;;10.40;5.40;;;16.50;99.90;;;;;;4983314;28;20465;-51
2023/06/23 02:21:55;;;;;;;6.73;5.00;;;16.40;99.90;;;;;;4993939;28;20524;-51
2023/06/23 02:24:23;;;;;;;11.00;5.97;;;16.50;99.90;;;;;;4989631;28;20497;-50
2023/06/23 02:26:51;;;;;;;7.53;6.00;;;16.50;99.90;;;;;;4981567;28;20452;-51
2023/06/23 02:29:19;;;;;;;7.00;5.67;;;16.60;99.90;;;;;;4994297;28;20560;-50
2023/06/23 02:31:46;;;;;;;9.70;5.13;;;16.60;99.90;;;;;;4988532;28;21015;-50
2023/06/23 02:34:14;;;;;;;11.63;6.00;;;16.50;99.90;;;;;;4991752;28;20480;-50
2023/06/23 02:36:46;;;;;;;7.50;5.43;;;16.60;99.90;;;;;;4993387;28;20571;-50
2023/06/23 02:39:17;;;;;;;7.40;5.40;;;16.50;99.90;;;;;;4992600;28;20452;-51
2023/06/23 02:41:46;;;;;;;8.47;5.70;;;16.50;99.90;;;;;;4989763;28;20473;-50
2023/06/23 02:44:16;;;;;;;8.27;5.30;;;16.50;99.90;;;;;;4987307;28;20568;-51
2023/06/23 02:46:49;;;;;;;9.10;5.87;;;16.40;99.90;;;;;;4987772;28;20447;-51
2023/06/23 02:49:22;;;;;;;7.20;6.00;;;16.40;99.90;;;;;;4991910;28;20504;-51
2023/06/23 02:51:54;;;;;;;7.03;5.93;;;16.40;99.90;;;;;;4993036;28;20453;-50
2023/06/23 02:54:21;;;;;;;6.67;5.00;;;16.40;99.90;;;;;;4989743;28;20575;-52
2023/06/23 02:56:49;;;;;;;7.73;5.70;;;16.40;99.90;;;;;;4992312;28;20489;-50
2023/06/23 02:59:19;;;;;;;5.50;5.00;;;16.40;99.90;;;;;;4991482;28;20496;-50
2023/06/23 03:01:48;;;;;;;18.37;6.20;;;16.50;99.90;;;;;;4989173;28;20529;-50
2023/06/23 03:04:16;;;;;;;8.57;5.20;;;16.50;99.90;;;;;;4992431;28;20881;-50
2023/06/23 03:06:44;;;;;;;6.17;5.50;;;16.50;99.90;;;;;;4991183;28;20973;-51
2023/06/23 03:09:11;;;;;;;10.40;6.20;;;16.50;99.90;;;;;;4984672;28;20976;-51
2023/06/23 03:11:38;;;;;;;8.03;5.73;;;16.50;99.90;;;;;;4992607;28;21050;-51
2023/06/23 03:14:05;;;;;;;8.60;5.80;;;16.60;99.90;;;;;;4985477;28;20563;-51
2023/06/23 03:16:36;;;;;;;6.07;5.57;;;16.60;99.90;;;;;;4988798;28;20572;-49
2023/06/23 03:19:18;;;;;;;8.27;5.70;;;16.60;99.90;;;;;;4993371;28;20453;-50
2023/06/23 03:21:49;;;;;;;7.37;4.90;;;16.60;99.90;;;;;;4989064;28;20456;-51
2023/06/23 03:24:18;;;;;;;7.53;5.30;;;16.70;99.90;;;;;;4992603;28;20563;-50
2023/06/23 03:26:49;;;;;;;6.17;5.60;;;16.70;99.90;;;;;;4992326;28;20899;-51
2023/06/23 03:29:19;;;;;;;8.03;5.63;;;16.70;99.90;;;;;;4991304;28;20546;-50
2023/06/23 03:31:46;;;;;;;5.97;4.83;;;16.70;99.90;;;;;;4985952;28;20986;-50
2023/06/23 03:34:16;;;;;;;7.53;5.70;;;16.70;99.90;;;;;;4990656;28;20484;-51
2023/06/23 03:36:45;;;;;;;8.30;6.60;;;16.70;99.90;;;;;;4995799;28;20899;-50
2023/06/23 03:39:17;;;;;;;10.87;5.70;;;16.70;99.90;;;;;;4994961;28;21089;-51
2023/06/23 03:41:45;;;;;;;6.00;5.50;;;16.70;99.90;;;;;;4986918;28;20485;-51
2023/06/23 03:44:21;;;;;;;7.97;5.70;;;16.70;99.90;;;;;;4987114;28;20939;-50
2023/06/23 03:46:52;;;;;;;10.50;6.07;;;16.70;99.90;;;;;;4992221;28;20543;-51
2023/06/23 03:49:21;;;;;;;8.27;6.10;;;16.70;99.90;;;;;;4990920;28;20526;-49
2023/06/23 03:51:53;;;;;;;9.23;5.80;;;16.80;99.90;;;;;;4991461;28;20459;-50
2023/06/23 03:54:21;;;;;;;13.13;5.20;;;16.80;99.90;;;;;;4992248;28;20575;-50
2023/06/23 03:56:49;;;;;;;9.13;5.93;;;16.80;99.90;;;;;;4989616;28;20936;-50
2023/06/23 03:59:17;;;;;;;12.37;5.90;;;16.80;99.90;;;;;;4992180;28;20547;-50
2023/06/23 04:01:45;;;;;;;7.40;6.63;;;16.80;99.90;;;;;;4985187;28;20449;-50
2023/06/23 04:04:13;;;;;;;13.30;7.60;;;16.80;99.90;;;;;;4989060;28;20567;-50
2023/06/23 04:06:43;;;;;;;12.40;6.60;;;16.80;99.90;;;;;;4992020;28;20487;-51
2023/06/23 04:09:13;;;;;;;7.60;6.53;;;16.80;99.90;;;;;;4997383;28;20537;-51
2023/06/23 04:11:40;;;;;;;9.10;6.10;;;16.80;99.90;;;;;;4991414;28;20504;-51
2023/06/23 04:14:08;;;;;;;16.43;6.70;;;16.80;99.90;;;;;;4990442;28;20563;-50
2023/06/23 04:16:37;;;;;;;7.80;6.67;;;16.70;99.90;;;;;;4993370;28;20572;-50
2023/06/23 04:19:06;;;;;;;13.90;6.93;;;16.80;99.90;;;;;;4991735;28;20551;-50
2023/06/23 04:21:34;;;;;;;10.40;6.13;;;16.80;99.90;;;;;;4991121;28;20552;-51
2023/06/23 04:24:03;;;;;;;10.60;6.90;;;16.80;99.90;;;;;;4987777;28;21065;-50
2023/06/23 04:26:34;;;;;;;10.20;6.53;;;16.80;99.90;;;;;;4989521;28;20982;-50
2023/06/23 04:29:04;;;;;;;10.13;6.93;;;16.80;99.90;;;;;;4983534;28;20519;-50
2023/06/23 04:31:33;;;;;;;7.50;6.03;;;16.80;99.90;;;;;;4987756;28;20535;-50
2023/06/23 04:33:59;;;;;;;7.07;6.37;;;16.80;99.90;;;;;;4988576;28;20496;-50
2023/06/23 04:36:32;;;;;;;8.47;6.40;;;16.80;99.90;;;;;;4992140;28;20580;-50
2023/06/23 04:39:08;;;;;;;11.17;6.80;;;16.80;99.90;;;;;;4986181;28;20555;-50
2023/06/23 04:41:41;;;;;;;6.13;5.50;;;16.90;99.90;;;;;;4987711;28;20456;-49
2023/06/23 04:44:09;;;;;;;7.40;5.70;;;16.90;99.90;;;;;;4981780;28;20572;-51
2023/06/23 04:46:40;;;;;;;7.43;6.53;;;16.90;99.90;;;;;;4988422;28;20587;-51
2023/06/23 04:49:09;;;;;;;8.87;6.23;;;16.90;99.90;;;;;;4989166;28;21572;-50
2023/06/23 04:51:40;;;;;;;10.40;6.17;;;17.00;99.90;;;;;;4991777;28;20547;-51
2023/06/23 04:54:12;;;;;;;9.90;6.47;;;17.00;99.90;;;;;;4982733;28;20488;-51
2023/06/23 04:56:42;;;;;;;9.53;6.57;;;17.00;99.90;;;;;;4984843;28;20571;-50
2023/06/23 04:59:12;;;;;;;12.50;6.73;;;17.00;99.90;;;;;;4981603;28;20531;-51
2023/06/23 05:01:41;;;;;;;7.40;6.60;;;17.00;99.90;;;;;;4983877;28;20571;-50
2023/06/23 05:04:09;;;;;;;10.07;6.70;;;17.00;99.90;;;;;;4984776;28;21100;-51
2023/06/23 05:06:38;;;;;;;9.57;6.07;;;17.00;99.90;;;;;;4989805;28;20648;-52
2023/06/23 05:09:06;;;;;;;13.00;6.77;;;17.00;99.90;;;;;;4988256;28;20560;-52
2023/06/23 05:11:34;;;;;;;9.93;6.80;;;17.00;99.90;;;;;;4987022;28;21278;-52
2023/06/23 05:14:02;;;;;;;12.60;7.17;;;17.00;99.90;;;;;;4989297;28;20572;-51
2023/06/23 05:16:29;;;;;;;8.87;7.83;;;17.00;99.90;;;;;;4991767;28;20502;-52
2023/06/23 05:18:58;;;;;;;7.17;6.57;;;17.00;99.90;;;;;;4989061;28;20560;-52
2023/06/23 05:21:27;;;;;;;16.50;6.53;;;17.00;99.90;;;;;;4987813;28;20492;-51
2023/06/23 05:23:57;;;;;;;8.87;6.30;;;17.00;99.90;;;;;;4990292;28;21001;-51
2023/06/23 05:26:25;;;;;;;7.80;7.03;;;17.10;99.90;;;;;;4990669;28;20492;-51
2023/06/23 05:28:55;;;;;;;9.43;6.80;;;17.10;99.90;;;;;;4990329;28;20464;-51
2023/06/23 05:31:26;;;;;;;8.07;6.63;;;17.10;99.90;;;;;;4993473;28;20515;-51
2023/06/23 05:33:55;;;;;;;9.97;7.80;;;17.10;99.90;;;;;;4986834;28;20932;-51
2023/06/23 05:36:23;;;;;;;9.60;7.63;;;17.10;99.90;;;;;;4989983;28;20503;-51
2023/06/23 05:38:51;;;;;;;9.23;6.77;;;17.20;99.90;;;;;;4992309;28;20977;-51
2023/06/23 05:41:18;;;;;;;12.13;7.60;;;17.20;99.90;;;;;;4994055;28;20468;-51
2023/06/23 05:43:44;;;;;;;8.77;7.33;;;17.20;99.90;;;;;;4988666;28;21200;-51
2023/06/23 05:46:14;;;;;;;8.23;7.40;;;17.20;99.90;;;;;;4988481;28;21045;-51
2023/06/23 05:48:47;;;;;;;7.83;7.00;;;17.10;99.90;;;;;;4987852;28;21070;-51
2023/06/23 05:51:17;;;;;;;11.27;8.20;;;17.10;99.90;;;;;;4983622;28;20549;-51
2023/06/23 05:53:46;;;;;;;10.00;7.33;;;17.10;99.90;;;;;;4985815;28;20563;-51
2023/06/23 05:56:17;;;;;;;8.67;7.63;;;17.10;99.90;;;;;;4992840;28;20556;-51
2023/06/23 05:58:46;;;;;;;14.50;7.97;;;17.10;99.90;;;;;;4988201;28;20544;-51
2023/06/23 06:01:17;;;;;;;7.93;7.13;;;17.10;99.90;;;;;;4996558;28;20545;-50
2023/06/23 06:03:48;;;;;;;8.70;7.80;;;17.20;99.90;;;;;;4988605;28;20554;-52
2023/06/23 06:06:16;;;;;;;13.80;7.50;;;17.20;99.90;;;;;;4993245;28;20461;-51
2023/06/23 06:08:44;;;;;;;8.90;7.93;;;17.20;99.90;;;;;;4990376;28;20508;-51
2023/06/23 06:11:13;;;;;;;7.40;6.70;;;17.20;99.90;;;;;;4998843;28;21010;-51
2023/06/23 06:13:44;;;;;;;7.53;6.90;;;17.20;99.90;;;;;;4991220;28;20575;-51
2023/06/23 06:16:11;;;;;;;7.30;6.60;;;17.20;99.90;;;;;;4989262;28;20460;-51
2023/06/23 06:18:39;;;;;;;7.97;7.27;;;17.20;99.90;;;;;;4985295;28;20581;-51
2023/06/23 06:21:08;;;;;;;6.90;6.23;;;17.30;99.90;;;;;;4988328;28;20468;-51
2023/06/23 06:23:36;;;;;;;6.87;6.30;;;17.20;99.90;;;;;;4983387;28;20573;-51
2023/06/23 06:26:05;;;;;;;7.37;6.77;;;17.20;99.90;;;;;;4993014;28;20484;-51
2023/06/23 06:28:33;;;;;;;14.10;7.17;;;17.20;99.90;;;;;;4990542;28;20547;-51
2023/06/23 06:31:01;;;;;;;8.60;7.30;;;17.20;99.90;;;;;;4995142;28;20500;-51
2023/06/23 06:33:29;;;;;;;8.90;8.07;;;17.30;99.90;;;;;;4992314;28;20579;-50
2023/06/23 06:35:58;;;;;;;8.37;7.60;;;17.30;99.90;;;;;;4989281;28;20563;-51
2023/06/23 06:38:29;;;;;;;8.47;7.77;;;17.30;99.90;;;;;;4990028;28;20493;-51
2023/06/23 06:40:57;;;;;;;7.60;7.00;;;17.30;99.90;;;;;;4987890;28;20472;-51
2023/06/23 06:43:24;;;;;;;7.60;6.80;;;17.30;99.90;;;;;;4990942;28;20572;-51
2023/06/23 06:45:51;;;;;;;8.80;7.70;;;17.40;99.90;;;;;;4985299;28;20493;-51
2023/06/23 06:48:21;;;;;;;7.43;6.77;;;17.30;99.90;;;;;;4993584;28;20974;-51
2023/06/23 06:50:48;;;;;;;8.83;8.03;;;17.40;99.90;;;;;;4993595;28;20891;-51
2023/06/23 06:53:17;;;;;;;10.20;7.57;;;17.30;99.90;;;;;;4992239;28;20970;-51
2023/06/23 06:55:47;;;;;;;8.60;7.70;;;17.40;99.90;;;;;;4998739;28;20943;-51
2023/06/23 06:58:13;;;;;;;11.60;7.80;;;17.40;99.90;;;;;;4991795;28;20485;-51
2023/06/23 07:00:41;;;;;;;8.37;7.20;;;17.30;99.90;;;;;;4986114;28;20527;-51
2023/06/23 07:03:08;;;;;;;8.63;7.77;;;17.30;99.90;;;;;;4993370;28;20505;-51
2023/06/23 07:05:34;;;;;;;13.50;7.77;;;17.30;99.90;;;;;;4991702;28;20507;-51
2023/06/23 07:08:01;;;;;;;13.40;7.90;;;17.30;99.90;;;;;;4990925;28;20489;-51
2023/06/23 07:10:27;;;;;;;8.93;8.00;;;17.30;99.90;;;;;;4989681;28;20541;-51
2023/06/23 07:12:55;;;;;;;9.07;7.63;;;17.20;99.90;;;;;;4984445;28;21003;-51
2023/06/23 07:15:22;;;;;;;8.00;7.30;;;17.30;99.90;;;;;;4991488;28;20551;-52
2023/06/23 07:17:49;;;;;;;8.10;7.30;;;17.20;99.90;;;;;;4988517;28;20517;-51
2023/06/23 07:20:16;;;;;;;8.33;7.40;;;17.20;99.90;;;;;;4993098;28;20457;-50
2023/06/23 07:22:43;;;;;;;9.47;6.20;;;17.20;99.90;;;;;;4990942;28;20551;-52
2023/06/23 07:25:10;;;;;;;7.63;6.93;;;17.20;99.90;;;;;;4992513;28;20466;-50
2023/06/23 07:27:37;;;;;;;6.93;6.17;;;17.20;99.90;;;;;;4990637;28;20902;-51
2023/06/23 07:30:06;;;;;;;6.40;5.73;;;17.10;99.90;;;;;;4981495;28;20464;-51
2023/06/23 07:32:33;;;;;;;6.17;5.67;;;17.10;99.90;;;;;;4989097;28;20528;-52
2023/06/23 07:35:00;;;;;;;6.93;5.97;;;17.20;99.90;;;;;;4991026;28;21137;-50
2023/06/23 07:37:26;;;;;;;7.70;5.33;;;17.20;99.90;;;;;;4985693;28;20595;-52
2023/06/23 07:39:53;;;;;;;6.57;5.70;;;17.10;99.90;;;;;;4987065;28;20978;-52
2023/06/23 07:42:20;;;;;;;8.10;5.20;;;17.10;99.90;;;;;;4992784;28;20544;-52
2023/06/23 07:44:46;;;;;;;5.97;5.47;;;17.10;99.90;;;;;;4981157;28;20566;-51
2023/06/23 07:47:14;;;;;;;10.03;6.40;;;17.10;99.90;;;;;;4988752;28;20535;-51
2023/06/23 07:49:41;;;;;;;6.87;6.23;;;17.10;99.90;;;;;;4984564;28;20900;-51
2023/06/23 07:52:07;;;;;;;6.70;6.03;;;17.10;99.90;;;;;;4985473;28;21195;-51
2023/06/23 07:54:34;;;;;;;6.33;5.83;;;17.10;99.90;;;;;;4990606;28;20508;-51
2023/06/23 07:57:01;;;;;;;5.57;5.07;;;17.10;99.90;;;;;;4988033;28;20906;-52
2023/06/23 07:59:28;;;;;;;9.87;6.70;;;17.10;99.90;;;;;;4990820;28;20499;-52
2023/06/23 08:01:55;;;;;;;6.60;6.03;;;17.10;99.90;;;;;;4988387;28;20543;-51
2023/06/23 08:04:23;;;;;;;8.07;6.43;;;17.10;99.90;;;;;;5021415;23;20541;-51
2023/06/23 08:06:49;;;;;;;6.60;6.00;;;17.10;99.90;;;;;;5028612;28;20517;-50
2023/06/23 08:09:16;;;;;;;7.33;6.37;;;17.10;99.90;;;;;;5027536;28;21233;-51
2023/06/23 08:11:42;;;;;;;7.73;6.63;;;17.10;99.90;;;;;;5030575;28;20466;-50
2023/06/23 08:14:10;;;;;;;7.47;6.47;;;17.10;99.90;;;;;;5014353;28;20562;-50
2023/06/23 08:16:36;;;;;;;7.47;6.77;;;17.10;99.90;;;;;;5010184;28;20529;-51
2023/06/23 08:19:03;;;;;;;12.33;6.83;;;17.00;99.90;;;;;;5008844;28;21135;-51
2023/06/23 08:21:31;;;;;;;8.07;7.27;;;17.10;99.90;;;;;;5007393;28;20554;-50
2023/06/23 08:23:58;;;;;;;9.97;7.67;;;17.00;99.90;;;;;;5007273;28;20480;-50
2023/06/23 08:26:25;;;;;;;10.87;8.47;;;17.00;99.90;;;;;;5009322;28;20464;-50
2023/06/23 08:28:51;;;;;;;10.30;8.50;;;17.00;99.90;;;;;;5006315;28;20538;-51
2023/06/23 08:31:18;;;;;;;8.60;7.30;;;17.00;99.90;;;;;;5008147;28;20550;-50
2023/06/23 08:33:45;;;;;;;8.93;7.57;;;17.00;99.90;;;;;;5002885;28;20563;-50
2023/06/23 08:36:11;;;;;;;8.90;8.00;;;17.00;99.90;;;;;;5007858;28;20450;-51
2023/06/23 08:38:39;;;;;;;8.23;7.30;;;17.00;99.90;;;;;;5008264;28;21072;-50
2023/06/23 08:41:06;;;;;;;10.13;8.20;;;16.90;99.90;;;;;;5006003;28;20507;-50
2023/06/23 08:43:35;;;;;;;8.20;7.50;;;17.00;99.90;;;;;;5005483;28;21054;-51
2023/06/23 08:46:03;;;;;;;10.70;8.00;;;17.00;99.90;;;;;;5009761;28;21079;-51
2023/06/23 08:48:31;;;;;;;12.13;7.57;;;17.00;99.90;;;;;;5006216;28;20460;-50
2023/06/23 08:50:59;;;;;;;8.57;7.70;;;16.90;99.90;;;;;;5008728;28;20591;-49
2023/06/23 08:53:26;;;;;;;9.80;7.10;;;16.90;99.90;;;;;;5020798;28;20463;-50
2023/06/23 08:55:55;;;;;;;8.90;7.87;;;17.00;99.90;;;;;;5010659;28;20455;-50
2023/06/23 08:58:23;;;;;;;10.27;6.60;;;17.00;99.90;;;;;;5010279;28;20574;-50
2023/06/23 09:00:51;;;;;;;7.67;6.90;;;17.10;99.90;;;;;;5014221;28;21035;-51
2023/06/23 09:03:18;;;;;;;7.00;6.33;;;17.10;99.90;;;;;;5010484;28;21032;-50
2023/06/23 09:05:44;;;;;;;7.17;6.53;;;17.20;99.90;;;;;;5011504;28;20459;-50
2023/06/23 09:08:11;;;;;;;9.97;7.40;;;17.20;99.90;;;;;;5011435;28;20494;-50
2023/06/23 09:10:38;;;;;;;11.47;7.13;;;17.20;99.90;;;;;;5014545;28;20547;-50
2023/06/23 09:13:24;;;;;;;7.90;6.53;;;17.20;99.90;;;;;;5007853;28;20567;-50
2023/06/23 09:15:52;;;;;;;9.60;6.27;;;17.30;99.90;;;;;;5003862;28;20980;-51
2023/06/23 09:18:19;;;;;;;6.13;5.60;;;17.40;99.90;;;;;;5000641;28;20586;-51
2023/06/23 09:20:47;;;;;;;6.53;5.93;;;17.40;99.90;;;;;;5005203;28;20496;-50
2023/06/23 09:23:15;;;;;;;7.30;5.10;;;17.40;99.90;;;;;;5006756;28;20558;-51
2023/06/23 09:25:44;;;;;;;5.73;5.23;;;17.30;99.90;;;;;;5005872;28;20459;-56
2023/06/23 09:28:23;;;;;;;5.07;4.57;;;17.30;99.90;;;;;;5009059;28;20555;-55
2023/06/23 09:30:49;;;;;;;4.33;4.00;;;17.40;99.90;;;;;;5008605;28;20521;-54
2023/06/23 09:33:18;;;;;;;5.23;4.83;;;17.40;99.90;;;;;;4998341;28;20584;-54
2023/06/23 09:35:47;;;;;;;4.47;4.17;;;17.40;99.90;;;;;;5010836;28;20463;-54
2023/06/23 09:38:14;;;;;;;4.67;4.27;;;17.50;99.90;;;;;;5013467;28;20511;-55
2023/06/23 09:40:40;;;;;;;4.33;4.00;;;17.40;99.90;;;;;;5012695;28;20499;-54
2023/06/23 09:43:07;;;;;;;4.57;3.70;;;17.40;99.90;;;;;;5010403;28;21113;-56
2023/06/23 09:45:35;;;;;;;4.97;4.20;;;17.50;99.90;;;;;;5009629;28;20476;-54
2023/06/23 09:48:01;;;;;;;4.50;4.20;;;17.50;99.90;;;;;;5013487;28;20479;-54
2023/06/23 09:50:28;;;;;;;10.23;4.10;;;17.50;99.90;;;;;;5009649;28;20472;-51
2023/06/23 09:53:03;;;;;;;4.93;4.50;;;17.50;99.90;;;;;;5014347;28;20447;-52
2023/06/23 09:55:31;;;;;;;4.17;3.87;;;17.60;99.90;;;;;;5012350;28;20463;-51
2023/06/23 09:57:58;;;;;;;5.90;4.07;;;17.50;99.90;;;;;;5013454;28;20479;-51
2023/06/23 10:00:30;;;;;;;6.83;4.40;;;17.50;99.90;;;;;;5013556;28;20475;-52
2023/06/23 10:02:59;;;;;;;13.40;4.10;;;17.60;99.90;;;;;;5013109;28;20551;-52
2023/06/23 10:05:26;;;;;;;6.57;4.90;;;17.50;99.90;;;;;;5012654;28;20878;-52
2023/06/23 10:08:06;;;;;;;5.73;5.13;;;17.60;99.90;;;;;;5009032;28;20551;-52
2023/06/23 10:10:33;;;;;;;11.97;5.33;;;17.60;99.90;;;;;;5011040;28;20464;-52
2023/06/23 10:12:59;;;;;;;5.53;4.80;;;17.60;99.90;;;;;;5013423;28;20480;-51
2023/06/23 10:15:28;;;;;;;5.33;4.70;;;17.60;99.90;;;;;;5011616;28;20626;-51
2023/06/23 10:17:56;;;;;;;6.20;5.60;;;17.50;99.90;;;;;;5013400;28;20452;-52
2023/06/23 10:20:23;;;;;;;6.70;6.00;;;17.60;99.90;;;;;;5011750;28;20464;-52
2023/06/23 10:22:51;;;;;;;7.40;5.83;;;17.60;99.90;;;;;;5013003;28;20843;-52
2023/06/23 10:25:20;;;;;;;6.47;5.80;;;17.60;99.90;;;;;;5010261;28;20563;-52
2023/06/23 10:27:50;;;;;;;5.83;5.33;;;17.60;99.90;;;;;;5011699;28;20543;-52
2023/06/23 10:30:19;;;;;;;7.47;5.90;;;17.60;99.90;;;;;;5010930;28;20559;-53
2023/06/23 10:32:50;;;;;;;6.53;5.80;;;17.60;99.90;;;;;;5010249;28;20495;-52
2023/06/23 10:35:21;;;;;;;7.93;6.70;;;17.70;99.90;;;;;;5015100;28;20693;-50
2023/06/23 10:37:50;;;;;;;8.40;6.03;;;17.70;99.90;;;;;;5013396;28;20471;-51
2023/06/23 10:40:22;;;;;;;6.97;6.27;;;17.60;99.90;;;;;;5010101;28;20610;-52
2023/06/23 10:42:49;;;;;;;10.83;6.37;;;17.70;99.90;;;;;;5003786;28;20475;-51
2023/06/23 10:45:16;;;;;;;7.40;6.70;;;17.70;99.90;;;;;;5011563;28;20912;-51
2023/06/23 10:47:44;;;;;;;7.97;7.17;;;17.70;99.90;;;;;;5012762;28;20550;-53
2023/06/23 10:50:12;;;;;;;6.90;6.03;;;17.70;99.90;;;;;;5008813;28;20460;-53
2023/06/23 10:52:39;;;;;;;6.60;6.00;;;17.70;99.90;;;;;;5011305;28;20544;-51
2023/06/23 10:55:35;;;;;;;7.07;6.37;;;17.60;99.90;;;;;;5011056;28;20511;-53
2023/06/23 10:58:09;;;;;;;6.77;6.07;;;17.70;99.90;;;;;;5015192;28;20503;-53
2023/06/23 11:00:36;;;;;;;7.00;6.10;;;17.60;99.90;;;;;;5006467;28;20483;-56
2023/06/23 11:03:05;;;;;;;10.20;6.27;;;17.60;99.90;;;;;;5014980;28;20957;-51
2023/06/23 11:05:32;;;;;;;7.00;6.30;;;17.60;99.90;;;;;;5013447;28;20439;-51
2023/06/23 11:08:02;;;;;;;7.73;5.87;;;17.70;99.90;;;;;;5014166;28;20472;-51
2023/06/23 11:10:49;;;;;;;7.57;6.40;;;17.70;99.90;;;;;;5006075;28;20496;-52
2023/06/23 11:13:15;;;;;;;9.70;6.93;;;17.70;99.90;;;;;;5017721;28;21140;-52
2023/06/23 11:15:51;;;;;;;10.70;6.80;;;17.60;99.90;;;;;;5015043;28;20966;-52
2023/06/23 11:18:22;;;;;;;7.43;6.67;;;17.50;99.90;;;;;;5013938;28;21059;-52
2023/06/23 11:20:49;;;;;;;10.17;6.60;;;17.50;99.90;;;;;;5013673;28;20455;-52
2023/06/23 11:23:16;;;;;;;7.90;6.97;;;17.40;99.90;;;;;;5014106;28;20482;-52
2023/06/23 11:25:46;;;;;;;8.50;6.70;;;17.30;99.90;;;;;;5010822;28;20559;-51
2023/06/23 11:28:34;;;;;;;11.23;7.27;;;17.30;99.90;;;;;;5010271;28;20502;-51
2023/06/23 11:31:11;;;;;;;7.93;7.13;;;17.30;99.90;;;;;;5009201;28;20466;-51
2023/06/23 11:33:38;;;;;;;8.40;7.60;;;17.30;99.90;;;;;;5011631;28;20868;-52
2023/06/23 11:36:07;;;;;;;9.47;6.87;;;17.30;99.90;;;;;;5010576;28;20499;-51
2023/06/23 11:38:34;;;;;;;9.80;6.20;;;17.30;99.90;;;;;;5012144;28;20486;-52
2023/06/23 11:41:02;;;;;;;9.53;6.40;;;17.30;99.90;;;;;;5011800;28;20451;-51
2023/06/23 11:43:33;;;;;;;6.27;5.67;;;17.20;99.90;;;;;;5010527;28;20496;-51
2023/06/23 11:46:07;;;;;;;11.63;5.63;;;17.20;99.90;;;;;;5010740;28;20466;-51
2023/06/23 11:48:35;;;;;;;6.30;5.47;;;17.10;99.90;;;;;;5010751;28;20967;-53
2023/06/23 11:51:03;;;;;;;6.70;5.40;;;17.10;99.90;;;;;;5013369;28;20498;-52
2023/06/23 11:53:30;;;;;;;5.23;4.50;;;17.00;99.90;;;;;;5011180;28;20527;-52
2023/06/23 11:55:57;;;;;;;10.90;5.60;;;17.10;99.90;;;;;;5000689;28;20576;-51
2023/06/23 11:58:24;;;;;;;7.17;5.37;;;17.10;99.90;;;;;;5005697;28;20562;-52
2023/06/23 12:00:52;;;;;;;5.63;5.00;;;17.10;99.90;;;;;;5002905;28;20538;-51
2023/06/23 12:03:19;;;;;;;6.40;4.90;;;17.10;99.90;;;;;;5007827;28;20841;-52
2023/06/23 12:05:46;;;;;;;6.70;4.63;;;17.10;99.90;;;;;;5005204;28;20962;-51
2023/06/23 12:08:13;;;;;;;5.97;5.37;;;17.10;99.90;;;;;;5004931;28;20470;-52
2023/06/23 12:10:41;;;;;;;7.33;5.87;;;17.20;99.90;;;;;;5006572;28;20464;-51
2023/06/23 12:13:10;;;;;;;8.30;5.23;;;17.20;99.90;;;;;;5004601;28;20552;-51
2023/06/23 12:15:37;;;;;;;10.03;5.57;;;17.20;99.90;;;;;;5007664;28;20470;-51
2023/06/23 12:18:05;;;;;;;7.90;5.50;;;17.20;99.90;;;;;;5006864;28;20543;-51
2023/06/23 12:20:35;;;;;;;8.43;5.47;;;17.30;99.90;;;;;;5002582;28;20487;-51
2023/06/23 12:23:03;;;;;;;7.50;5.63;;;17.30;99.90;;;;;;5011456;28;20459;-51
2023/06/23 12:25:31;;;;;;;7.87;5.60;;;17.30;99.90;;;;;;5006439;28;20475;-51
2023/06/23 12:27:58;;;;;;;8.40;5.20;;;17.30;99.90;;;;;;5008553;28;20491;-51
2023/06/23 12:30:25;;;;;;;7.33;5.97;;;17.30;99.90;;;;;;5008312;28;20948;-50
2023/06/23 12:32:55;;;;;;;8.00;6.00;;;17.30;99.90;;;;;;5012184;28;20538;-51
2023/06/23 12:35:23;;;;;;;6.30;4.93;;;17.30;99.90;;;;;;5012652;28;20483;-52
2023/06/23 12:37:50;;;;;;;7.93;6.53;;;17.30;99.90;;;;;;5013855;28;20559;-51
2023/06/23 12:40:30;;;;;;;6.80;5.50;;;17.30;99.90;;;;;;5013492;28;20885;-51
2023/06/23 12:42:58;;;;;;;11.07;6.50;;;17.40;99.90;;;;;;5009284;28;20452;-51
2023/06/23 12:45:25;;;;;;;8.83;5.47;;;17.40;99.90;;;;;;5012144;28;20468;-52
2023/06/23 12:47:52;;;;;;;7.10;6.03;;;17.40;99.90;;;;;;5015426;28;20448;-51
2023/06/23 12:50:27;;;;;;;10.63;5.23;;;17.30;99.90;;;;;;5006380;28;20463;-51
2023/06/23 12:52:54;;;;;;;5.30;4.80;;;17.20;99.90;;;;;;5003882;28;20459;-50